This is the latest recevied weather packets stored in our database for station/object HG5OJG-6. If no packets are shown the sender has not sent any weather packets the latest 10 day(s).
| Time | Temp. | Humidity | Pressure | Rain* | Wind** | Luminosity | Snow |
|---|---|---|---|---|---|---|---|
| 1778040387 | 12.78° C | 72% | 1009.9 hPa | 0 mm | - | 27 W/m² | - |
| 1778037377 | 13.33° C | 70% | 1009.8 hPa | 0 mm | - | 1 W/m² | - |
| 1778035576 | 13.33° C | 69% | 1009.8 hPa | 0 mm | - | 0 W/m² | - |
| 1778030130 | 15° C | 63% | 1009.9 hPa | 0 mm | - | 0 W/m² | - |
| 1778028947 | 15° C | 62% | 1009.9 hPa | 0 mm | - | 0 W/m² | - |
| 1778026554 | 15.56° C | 61% | 1009.8 hPa | 0 mm | - | 0 W/m² | - |
| 1778024765 | 15.56° C | 60% | 1010.2 hPa | 0 mm | - | 0 W/m² | - |
| 1778024168 | 15.56° C | 59% | 1010.2 hPa | 0 mm | - | 0 W/m² | - |
| 1778012795 | 17.78° C | 52% | 1010.4 hPa | 0 mm | - | 0 W/m² | - |
| 1778010998 | 18.33° C | 49% | 1010.3 hPa | 0 mm | - | 0 W/m² | - |
| 1778008519 | 19.44° C | 45% | 1010.1 hPa | 0 mm | - | 0 W/m² | - |
| 1778007943 | 20° C | 44% | 1010.1 hPa | 0 mm | - | 0 W/m² | - |
| 1778007337 | 20° C | 43% | 1009.9 hPa | 0 mm | - | 0 W/m² | - |
| 1778006125 | 20.56° C | 41% | 1009.6 hPa | 0 mm | - | 0 W/m² | - |
| 1778005528 | 20.56° C | 40% | 1009.5 hPa | 0 mm | - | 0 W/m² | - |
| 1778004953 | 21.11° C | 39% | 1009.4 hPa | 0 mm | - | 1 W/m² | - |
| 1778004346 | 21.11° C | 38% | 1009.4 hPa | 0 mm | - | 2 W/m² | - |
| 1778003125 | 22.22° C | 37% | 1009.5 hPa | 0 mm | - | 8 W/m² | - |
| 1778001931 | 22.78° C | 35% | 1009.5 hPa | 0 mm | - | 17 W/m² | - |
| 1777995354 | 26.11° C | 27% | 1009.4 hPa | 0 mm | - | 248 W/m² | - |
| 1777994748 | 26.67° C | 28% | 1009.4 hPa | 0 mm | - | 317 W/m² | - |
| 1777992951 | 26.11° C | 28% | 1009.8 hPa | 0 mm | - | 444 W/m² | - |
| 1777991779 | 26.67° C | 26% | 1010 hPa | 0 mm | - | 344 W/m² | - |
| 1777990556 | 26.11° C | 24% | 1010.3 hPa | 0 mm | - | 501 W/m² | - |
* Rain latest hour (hover to see other rain measurements)
** Current wind speed in m/s (hover to see current wind gust speed)